Impacts METAR Board
IDs:

KBMQ - Burnet Muni, TX, US

Updated at: 0800 UTC 26 May 2019
Potential Impact None Slight Moderate High
Time 25/20Z 25/21Z 25/22Z 25/23Z 26/00Z 26/01Z 26/02Z 26/03Z 26/04Z 26/05Z 26/06Z 26/07Z 26/08Z
Temp86 88 88 85 85 83 80 79 77 76 75 74 73
Dewpt69 67 68 67 67 66 67 66 66 67 68 67 67
Altim30.03 30.00 29.99 29.99 29.99 29.98 30.00 30.02 30.03 30.04 30.04 30.03 30.04
VIS10 10 10 10 10 10 10 10 10 10 10 10 10
CIG80 -- -- 50 80 -- -- -- -- 19 15 17 17
CoverBKNCLRSCTBKNBKNCLRCLRCLRCLRBKNOVCOVCOVC
FltCatVFRVFRVFRVFRVFRVFRVFRVFRVFRMVFRMVFRMVFRMVFR
WX--------------------------
WDir170160170160140150140150150160160170160
WSpd12 10 13 9 5 8 8 8 8 7 10 10 8
WGst19 22 18 20 -- 16 -- 16 16 -- 20 15 --
Raw hourly METARs
KBMQ 251953Z AUTO 17012G19KT 10SM SCT035 SCT045 BKN080 30/21 A3003 RMK AO2 SLP150 T03000206
KBMQ 252053Z AUTO 16010G22KT 10SM CLR 31/19 A3000 RMK AO2 SLP141 60000 T03110194 58022
KBMQ 252153Z AUTO 17013G18KT 10SM SCT042 SCT050 31/20 A2999 RMK AO2 SLP137 T03110200
KBMQ 252253Z AUTO 16009G20KT 10SM SCT041 BKN050 BKN060 29/19 A2999 RMK AO2 SLP137 T02940194
KBMQ 252353Z AUTO 14005KT 10SM BKN080 29/19 A2999 RMK AO2 SLP135 60000 T02940194 10317 20283 56005
KBMQ 260053Z AUTO 15008G16KT 10SM CLR 28/19 A2998 RMK AO2 SLP133 T02830189
KBMQ 260153Z AUTO 14008KT 10SM CLR 27/19 A3000 RMK AO2 SLP142 T02670194
KBMQ 260253Z AUTO 15008G16KT 10SM CLR 26/19 A3002 RMK AO2 SLP147 T02610189 53010
KBMQ 260353Z AUTO 15008G16KT 10SM CLR 25/19 A3003 RMK AO2 SLP149 T02500189
KBMQ 260453Z AUTO 16007KT 10SM BKN019 24/19 A3004 RMK AO2 SLP154 T02440194
KBMQ 260553Z AUTO 16010G20KT 10SM BKN015 OVC020 24/20 A3004 RMK AO2 SLP154 T02390200 10300 20239 403170233 51008
KBMQ 260653Z AUTO 17010G15KT 10SM BKN017 OVC021 23/19 A3003 RMK AO2 SLP151 T02330194
KBMQ 260753Z AUTO 16008KT 10SM BKN017 OVC023 23/19 A3004 RMK AO2 SLP153 T02280194